sensor_id;sensor_type;location;lat;lon;timestamp;P1;durP1;ratioP1;P2;durP2;ratioP2
3953;SDS011;1991;48.682;9.030;2022-12-18T00:00:31;51.33;;;22.53;;
3953;SDS011;1991;48.682;9.030;2022-12-18T00:02:57;44.83;;;23.27;;
3953;SDS011;1991;48.682;9.030;2022-12-18T00:05:22;48.30;;;23.40;;
3953;SDS011;1991;48.682;9.030;2022-12-18T00:07:48;45.03;;;23.87;;
3953;SDS011;1991;48.682;9.030;2022-12-18T00:10:14;44.07;;;22.60;;
3953;SDS011;1991;48.682;9.030;2022-12-18T00:12:39;46.67;;;24.20;;
3953;SDS011;1991;48.682;9.030;2022-12-18T00:15:05;48.97;;;24.03;;
3953;SDS011;1991;48.682;9.030;2022-12-18T00:17:31;46.03;;;22.90;;
3953;SDS011;1991;48.682;9.030;2022-12-18T00:19:56;45.80;;;22.37;;
3953;SDS011;1991;48.682;9.030;2022-12-18T00:22:22;44.67;;;24.03;;
3953;SDS011;1991;48.682;9.030;2022-12-18T00:24:47;46.33;;;24.73;;
3953;SDS011;1991;48.682;9.030;2022-12-18T00:27:13;41.83;;;21.17;;
3953;SDS011;1991;48.682;9.030;2022-12-18T00:29:38;44.10;;;22.13;;
3953;SDS011;1991;48.682;9.030;2022-12-18T00:32:04;41.23;;;20.17;;
3953;SDS011;1991;48.682;9.030;2022-12-18T00:34:30;41.80;;;21.97;;
3953;SDS011;1991;48.682;9.030;2022-12-18T00:36:55;45.93;;;22.43;;
3953;SDS011;1991;48.682;9.030;2022-12-18T00:39:21;45.13;;;22.27;;
3953;SDS011;1991;48.682;9.030;2022-12-18T00:41:46;42.23;;;21.07;;
3953;SDS011;1991;48.682;9.030;2022-12-18T00:44:30;37.60;;;19.20;;
3953;SDS011;1991;48.682;9.030;2022-12-18T00:46:56;35.43;;;18.87;;
3953;SDS011;1991;48.682;9.030;2022-12-18T00:49:21;38.03;;;18.03;;
3953;SDS011;1991;48.682;9.030;2022-12-18T00:51:47;36.93;;;17.80;;
3953;SDS011;1991;48.682;9.030;2022-12-18T00:54:13;40.37;;;20.10;;
3953;SDS011;1991;48.682;9.030;2022-12-18T00:56:39;41.00;;;21.03;;
3953;SDS011;1991;48.682;9.030;2022-12-18T00:59:05;41.57;;;20.27;;
3953;SDS011;1991;48.682;9.030;2022-12-18T01:01:31;45.33;;;20.63;;
3953;SDS011;1991;48.682;9.030;2022-12-18T01:03:57;40.97;;;20.73;;
3953;SDS011;1991;48.682;9.030;2022-12-18T01:06:24;40.47;;;21.17;;
3953;SDS011;1991;48.682;9.030;2022-12-18T01:08:50;41.30;;;20.40;;
3953;SDS011;1991;48.682;9.030;2022-12-18T01:11:17;43.30;;;21.60;;
3953;SDS011;1991;48.682;9.030;2022-12-18T01:13:44;42.47;;;20.87;;
3953;SDS011;1991;48.682;9.030;2022-12-18T01:16:11;44.53;;;21.13;;
3953;SDS011;1991;48.682;9.030;2022-12-18T01:18:38;38.67;;;19.57;;
3953;SDS011;1991;48.682;9.030;2022-12-18T01:21:07;39.97;;;20.83;;
3953;SDS011;1991;48.682;9.030;2022-12-18T01:23:34;37.73;;;18.83;;
3953;SDS011;1991;48.682;9.030;2022-12-18T01:26:10;44.13;;;20.03;;
3953;SDS011;1991;48.682;9.030;2022-12-18T01:28:38;40.07;;;20.20;;
3953;SDS011;1991;48.682;9.030;2022-12-18T01:31:15;43.37;;;19.27;;
3953;SDS011;1991;48.682;9.030;2022-12-18T01:33:54;34.20;;;18.10;;
3953;SDS011;1991;48.682;9.030;2022-12-18T01:36:22;36.10;;;16.53;;
3953;SDS011;1991;48.682;9.030;2022-12-18T01:38:53;34.43;;;18.03;;
3953;SDS011;1991;48.682;9.030;2022-12-18T01:41:22;34.57;;;17.40;;
3953;SDS011;1991;48.682;9.030;2022-12-18T01:43:53;34.70;;;17.10;;
3953;SDS011;1991;48.682;9.030;2022-12-18T01:46:22;34.10;;;16.93;;
3953;SDS011;1991;48.682;9.030;2022-12-18T01:48:49;32.17;;;16.73;;
3953;SDS011;1991;48.682;9.030;2022-12-18T01:51:18;32.17;;;16.90;;
3953;SDS011;1991;48.682;9.030;2022-12-18T01:53:44;34.77;;;17.67;;
3953;SDS011;1991;48.682;9.030;2022-12-18T01:56:12;32.57;;;16.27;;
3953;SDS011;1991;48.682;9.030;2022-12-18T01:58:59;36.83;;;17.67;;
3953;SDS011;1991;48.682;9.030;2022-12-18T02:01:29;35.20;;;17.40;;
3953;SDS011;1991;48.682;9.030;2022-12-18T02:03:56;34.77;;;17.60;;
3953;SDS011;1991;48.682;9.030;2022-12-18T02:06:39;32.53;;;18.00;;
3953;SDS011;1991;48.682;9.030;2022-12-18T02:09:09;34.03;;;17.60;;
3953;SDS011;1991;48.682;9.030;2022-12-18T02:11:42;36.73;;;17.23;;
3953;SDS011;1991;48.682;9.030;2022-12-18T02:17:00;38.33;;;18.33;;
3953;SDS011;1991;48.682;9.030;2022-12-18T02:27:19;31.40;;;16.90;;
3953;SDS011;1991;48.682;9.030;2022-12-18T02:29:51;33.20;;;17.43;;
3953;SDS011;1991;48.682;9.030;2022-12-18T02:32:22;38.20;;;18.53;;
3953;SDS011;1991;48.682;9.030;2022-12-18T02:34:52;29.37;;;16.07;;
3953;SDS011;1991;48.682;9.030;2022-12-18T02:37:21;33.20;;;18.00;;
3953;SDS011;1991;48.682;9.030;2022-12-18T02:39:48;31.90;;;17.70;;
3953;SDS011;1991;48.682;9.030;2022-12-18T02:42:16;36.23;;;18.07;;
3953;SDS011;1991;48.682;9.030;2022-12-18T02:44:44;37.97;;;18.60;;
3953;SDS011;1991;48.682;9.030;2022-12-18T02:47:12;37.77;;;18.50;;
3953;SDS011;1991;48.682;9.030;2022-12-18T02:50:43;32.80;;;16.77;;
3953;SDS011;1991;48.682;9.030;2022-12-18T03:00:31;39.57;;;18.60;;
3953;SDS011;1991;48.682;9.030;2022-12-18T03:08:41;28.80;;;15.37;;
3953;SDS011;1991;48.682;9.030;2022-12-18T03:11:11;29.43;;;15.77;;
3953;SDS011;1991;48.682;9.030;2022-12-18T03:13:45;26.03;;;15.60;;
3953;SDS011;1991;48.682;9.030;2022-12-18T03:16:18;27.57;;;16.10;;
3953;SDS011;1991;48.682;9.030;2022-12-18T03:18:52;28.53;;;16.03;;
3953;SDS011;1991;48.682;9.030;2022-12-18T03:21:25;32.83;;;16.80;;
3953;SDS011;1991;48.682;9.030;2022-12-18T03:23:54;31.80;;;16.37;;
3953;SDS011;1991;48.682;9.030;2022-12-18T03:26:22;34.27;;;17.47;;
3953;SDS011;1991;48.682;9.030;2022-12-18T03:28:53;27.67;;;15.37;;
3953;SDS011;1991;48.682;9.030;2022-12-18T03:31:22;29.57;;;16.27;;
3953;SDS011;1991;48.682;9.030;2022-12-18T03:33:53;25.90;;;14.33;;
3953;SDS011;1991;48.682;9.030;2022-12-18T03:36:20;29.03;;;15.07;;
3953;SDS011;1991;48.682;9.030;2022-12-18T03:38:47;28.83;;;15.47;;
3953;SDS011;1991;48.682;9.030;2022-12-18T03:41:23;28.67;;;15.23;;
3953;SDS011;1991;48.682;9.030;2022-12-18T03:43:57;29.53;;;16.00;;
3953;SDS011;1991;48.682;9.030;2022-12-18T03:49:11;31.40;;;15.90;;
3953;SDS011;1991;48.682;9.030;2022-12-18T03:54:34;31.57;;;15.53;;
3953;SDS011;1991;48.682;9.030;2022-12-18T03:57:04;26.53;;;15.43;;
3953;SDS011;1991;48.682;9.030;2022-12-18T03:59:34;29.07;;;15.20;;
3953;SDS011;1991;48.682;9.030;2022-12-18T04:02:02;29.27;;;14.93;;
3953;SDS011;1991;48.682;9.030;2022-12-18T04:04:29;27.37;;;15.67;;
3953;SDS011;1991;48.682;9.030;2022-12-18T04:06:56;26.13;;;15.63;;
3953;SDS011;1991;48.682;9.030;2022-12-18T04:09:23;33.90;;;15.87;;
3953;SDS011;1991;48.682;9.030;2022-12-18T04:11:49;32.73;;;16.50;;
3953;SDS011;1991;48.682;9.030;2022-12-18T04:14:16;32.90;;;16.57;;
3953;SDS011;1991;48.682;9.030;2022-12-18T04:16:42;27.43;;;15.93;;
3953;SDS011;1991;48.682;9.030;2022-12-18T04:19:07;32.33;;;16.50;;
3953;SDS011;1991;48.682;9.030;2022-12-18T04:21:33;31.40;;;16.50;;
3953;SDS011;1991;48.682;9.030;2022-12-18T04:23:59;29.57;;;16.23;;
3953;SDS011;1991;48.682;9.030;2022-12-18T04:26:25;26.23;;;15.27;;
3953;SDS011;1991;48.682;9.030;2022-12-18T04:28:51;30.60;;;14.80;;
3953;SDS011;1991;48.682;9.030;2022-12-18T04:31:16;32.27;;;14.73;;
3953;SDS011;1991;48.682;9.030;2022-12-18T04:33:42;30.87;;;15.10;;
3953;SDS011;1991;48.682;9.030;2022-12-18T04:36:07;27.30;;;15.03;;
3953;SDS011;1991;48.682;9.030;2022-12-18T04:38:33;27.83;;;14.17;;
3953;SDS011;1991;48.682;9.030;2022-12-18T04:40:58;28.97;;;16.20;;
3953;SDS011;1991;48.682;9.030;2022-12-18T04:43:24;28.37;;;14.80;;
3953;SDS011;1991;48.682;9.030;2022-12-18T04:45:49;26.40;;;14.30;;
3953;SDS011;1991;48.682;9.030;2022-12-18T04:48:15;28.73;;;15.07;;
3953;SDS011;1991;48.682;9.030;2022-12-18T04:50:41;28.90;;;15.17;;
3953;SDS011;1991;48.682;9.030;2022-12-18T04:53:06;30.80;;;15.10;;
3953;SDS011;1991;48.682;9.030;2022-12-18T04:55:32;32.97;;;15.77;;
3953;SDS011;1991;48.682;9.030;2022-12-18T04:57:58;27.63;;;14.10;;
3953;SDS011;1991;48.682;9.030;2022-12-18T05:00:23;28.07;;;14.53;;
3953;SDS011;1991;48.682;9.030;2022-12-18T05:02:49;27.00;;;14.60;;
3953;SDS011;1991;48.682;9.030;2022-12-18T05:05:14;26.50;;;13.93;;
3953;SDS011;1991;48.682;9.030;2022-12-18T05:07:40;24.70;;;13.93;;
3953;SDS011;1991;48.682;9.030;2022-12-18T05:13:21;26.60;;;13.40;;
3953;SDS011;1991;48.682;9.030;2022-12-18T05:15:51;28.63;;;15.07;;
3953;SDS011;1991;48.682;9.030;2022-12-18T05:18:17;27.30;;;13.90;;
3953;SDS011;1991;48.682;9.030;2022-12-18T05:20:42;28.03;;;14.00;;
3953;SDS011;1991;48.682;9.030;2022-12-18T05:23:08;30.03;;;14.20;;
3953;SDS011;1991;48.682;9.030;2022-12-18T05:25:33;28.90;;;15.17;;
3953;SDS011;1991;48.682;9.030;2022-12-18T05:27:59;29.73;;;14.77;;
3953;SDS011;1991;48.682;9.030;2022-12-18T05:30:25;28.77;;;13.77;;
3953;SDS011;1991;48.682;9.030;2022-12-18T05:32:50;29.87;;;14.17;;
3953;SDS011;1991;48.682;9.030;2022-12-18T05:35:16;26.77;;;14.23;;
3953;SDS011;1991;48.682;9.030;2022-12-18T05:37:41;29.60;;;14.63;;
3953;SDS011;1991;48.682;9.030;2022-12-18T05:40:07;27.90;;;14.67;;
3953;SDS011;1991;48.682;9.030;2022-12-18T05:42:33;31.07;;;15.30;;
3953;SDS011;1991;48.682;9.030;2022-12-18T05:44:59;31.90;;;14.37;;
3953;SDS011;1991;48.682;9.030;2022-12-18T05:47:24;31.57;;;15.17;;
3953;SDS011;1991;48.682;9.030;2022-12-18T05:49:51;30.10;;;15.27;;
3953;SDS011;1991;48.682;9.030;2022-12-18T05:52:16;27.47;;;13.47;;
3953;SDS011;1991;48.682;9.030;2022-12-18T05:54:42;23.50;;;12.50;;
3953;SDS011;1991;48.682;9.030;2022-12-18T05:57:08;29.13;;;13.83;;
3953;SDS011;1991;48.682;9.030;2022-12-18T05:59:33;24.70;;;14.33;;
3953;SDS011;1991;48.682;9.030;2022-12-18T06:01:59;27.60;;;13.70;;
3953;SDS011;1991;48.682;9.030;2022-12-18T06:04:26;31.43;;;15.10;;
3953;SDS011;1991;48.682;9.030;2022-12-18T06:06:52;30.77;;;14.23;;
3953;SDS011;1991;48.682;9.030;2022-12-18T06:09:18;25.00;;;12.80;;
3953;SDS011;1991;48.682;9.030;2022-12-18T06:11:43;24.10;;;13.30;;
3953;SDS011;1991;48.682;9.030;2022-12-18T06:14:09;26.97;;;12.93;;
3953;SDS011;1991;48.682;9.030;2022-12-18T06:16:35;31.77;;;14.90;;
3953;SDS011;1991;48.682;9.030;2022-12-18T06:19:01;26.53;;;13.17;;
3953;SDS011;1991;48.682;9.030;2022-12-18T06:21:29;28.20;;;14.13;;
3953;SDS011;1991;48.682;9.030;2022-12-18T06:23:55;28.40;;;14.50;;
3953;SDS011;1991;48.682;9.030;2022-12-18T06:26:21;25.07;;;13.40;;
3953;SDS011;1991;48.682;9.030;2022-12-18T06:28:46;31.13;;;13.97;;
3953;SDS011;1991;48.682;9.030;2022-12-18T06:34:34;28.13;;;14.20;;
3953;SDS011;1991;48.682;9.030;2022-12-18T06:37:02;26.10;;;13.67;;
3953;SDS011;1991;48.682;9.030;2022-12-18T06:39:46;29.67;;;14.37;;
3953;SDS011;1991;48.682;9.030;2022-12-18T06:42:11;27.40;;;13.40;;
3953;SDS011;1991;48.682;9.030;2022-12-18T06:44:37;31.37;;;14.53;;
3953;SDS011;1991;48.682;9.030;2022-12-18T06:47:02;31.97;;;15.67;;
3953;SDS011;1991;48.682;9.030;2022-12-18T06:49:28;34.70;;;15.97;;
3953;SDS011;1991;48.682;9.030;2022-12-18T06:51:53;26.77;;;13.90;;
3953;SDS011;1991;48.682;9.030;2022-12-18T06:54:19;30.57;;;14.80;;
3953;SDS011;1991;48.682;9.030;2022-12-18T06:56:45;28.40;;;14.13;;
3953;SDS011;1991;48.682;9.030;2022-12-18T06:59:12;28.23;;;13.93;;
3953;SDS011;1991;48.682;9.030;2022-12-18T07:01:38;33.63;;;15.40;;
3953;SDS011;1991;48.682;9.030;2022-12-18T07:04:03;32.20;;;15.57;;
3953;SDS011;1991;48.682;9.030;2022-12-18T07:06:29;29.47;;;15.77;;
3953;SDS011;1991;48.682;9.030;2022-12-18T07:08:55;34.50;;;17.17;;
3953;SDS011;1991;48.682;9.030;2022-12-18T07:11:20;31.53;;;15.77;;
3953;SDS011;1991;48.682;9.030;2022-12-18T07:13:46;32.13;;;15.67;;
3953;SDS011;1991;48.682;9.030;2022-12-18T07:16:16;29.40;;;14.77;;
3953;SDS011;1991;48.682;9.030;2022-12-18T07:18:43;34.33;;;15.20;;
3953;SDS011;1991;48.682;9.030;2022-12-18T07:21:09;30.43;;;15.50;;
3953;SDS011;1991;48.682;9.030;2022-12-18T07:23:36;31.97;;;14.50;;
3953;SDS011;1991;48.682;9.030;2022-12-18T07:26:06;29.23;;;15.20;;
3953;SDS011;1991;48.682;9.030;2022-12-18T07:28:34;34.83;;;15.40;;
3953;SDS011;1991;48.682;9.030;2022-12-18T07:31:07;25.00;;;13.53;;
3953;SDS011;1991;48.682;9.030;2022-12-18T07:33:34;29.13;;;14.70;;
3953;SDS011;1991;48.682;9.030;2022-12-18T07:36:00;32.90;;;15.33;;
3953;SDS011;1991;48.682;9.030;2022-12-18T07:38:28;29.10;;;14.27;;
3953;SDS011;1991;48.682;9.030;2022-12-18T07:40:53;32.90;;;15.87;;
3953;SDS011;1991;48.682;9.030;2022-12-18T07:43:19;27.43;;;14.53;;
3953;SDS011;1991;48.682;9.030;2022-12-18T07:45:45;29.43;;;15.13;;
3953;SDS011;1991;48.682;9.030;2022-12-18T07:48:10;35.83;;;15.87;;
3953;SDS011;1991;48.682;9.030;2022-12-18T07:50:36;36.27;;;16.73;;
3953;SDS011;1991;48.682;9.030;2022-12-18T07:53:02;35.33;;;15.57;;
3953;SDS011;1991;48.682;9.030;2022-12-18T07:55:30;30.63;;;15.40;;
3953;SDS011;1991;48.682;9.030;2022-12-18T07:57:56;29.03;;;15.57;;
3953;SDS011;1991;48.682;9.030;2022-12-18T08:00:22;27.10;;;15.00;;
3953;SDS011;1991;48.682;9.030;2022-12-18T08:02:47;29.43;;;14.87;;
3953;SDS011;1991;48.682;9.030;2022-12-18T08:05:13;31.30;;;15.73;;
3953;SDS011;1991;48.682;9.030;2022-12-18T08:07:39;31.30;;;16.40;;
3953;SDS011;1991;48.682;9.030;2022-12-18T08:10:05;32.60;;;16.47;;
3953;SDS011;1991;48.682;9.030;2022-12-18T08:12:31;30.57;;;16.30;;
3953;SDS011;1991;48.682;9.030;2022-12-18T08:14:57;33.93;;;16.63;;
3953;SDS011;1991;48.682;9.030;2022-12-18T08:17:22;28.83;;;16.50;;
3953;SDS011;1991;48.682;9.030;2022-12-18T08:19:48;29.17;;;16.33;;
3953;SDS011;1991;48.682;9.030;2022-12-18T08:22:14;32.83;;;16.40;;
3953;SDS011;1991;48.682;9.030;2022-12-18T08:24:39;31.67;;;17.23;;
3953;SDS011;1991;48.682;9.030;2022-12-18T08:27:05;29.90;;;15.67;;
3953;SDS011;1991;48.682;9.030;2022-12-18T08:29:30;25.93;;;16.10;;
3953;SDS011;1991;48.682;9.030;2022-12-18T08:31:56;27.87;;;15.80;;
3953;SDS011;1991;48.682;9.030;2022-12-18T08:34:22;26.33;;;14.70;;
3953;SDS011;1991;48.682;9.030;2022-12-18T08:36:48;30.90;;;16.00;;
3953;SDS011;1991;48.682;9.030;2022-12-18T08:39:13;23.97;;;14.57;;
3953;SDS011;1991;48.682;9.030;2022-12-18T08:41:39;28.93;;;16.60;;
3953;SDS011;1991;48.682;9.030;2022-12-18T08:44:06;24.87;;;15.53;;
3953;SDS011;1991;48.682;9.030;2022-12-18T08:46:51;26.70;;;14.43;;
3953;SDS011;1991;48.682;9.030;2022-12-18T08:49:17;24.73;;;14.13;;
3953;SDS011;1991;48.682;9.030;2022-12-18T08:51:42;26.93;;;16.40;;
3953;SDS011;1991;48.682;9.030;2022-12-18T08:54:09;25.23;;;15.07;;
3953;SDS011;1991;48.682;9.030;2022-12-18T08:56:36;23.93;;;15.07;;
3953;SDS011;1991;48.682;9.030;2022-12-18T08:59:02;28.30;;;17.17;;
3953;SDS011;1991;48.682;9.030;2022-12-18T09:01:29;24.00;;;15.90;;
3953;SDS011;1991;48.682;9.030;2022-12-18T09:03:54;24.83;;;15.93;;
3953;SDS011;1991;48.682;9.030;2022-12-18T09:06:20;28.03;;;17.50;;
3953;SDS011;1991;48.682;9.030;2022-12-18T09:08:47;30.53;;;19.40;;
3953;SDS011;1991;48.682;9.030;2022-12-18T09:11:13;30.43;;;19.17;;
3953;SDS011;1991;48.682;9.030;2022-12-18T09:13:43;26.93;;;19.20;;
3953;SDS011;1991;48.682;9.030;2022-12-18T09:16:08;25.80;;;17.53;;
3953;SDS011;1991;48.682;9.030;2022-12-18T09:18:34;23.60;;;17.93;;
3953;SDS011;1991;48.682;9.030;2022-12-18T09:21:06;22.67;;;17.47;;
3953;SDS011;1991;48.682;9.030;2022-12-18T09:23:43;25.60;;;19.20;;
3953;SDS011;1991;48.682;9.030;2022-12-18T09:26:09;23.57;;;19.47;;
3953;SDS011;1991;48.682;9.030;2022-12-18T09:28:35;23.33;;;18.87;;
3953;SDS011;1991;48.682;9.030;2022-12-18T09:31:05;22.03;;;18.53;;
3953;SDS011;1991;48.682;9.030;2022-12-18T09:33:32;23.73;;;18.20;;
3953;SDS011;1991;48.682;9.030;2022-12-18T09:36:00;23.45;;;19.27;;
3953;SDS011;1991;48.682;9.030;2022-12-18T09:38:26;25.20;;;20.08;;
3953;SDS011;1991;48.682;9.030;2022-12-18T09:40:52;25.02;;;20.00;;
3953;SDS011;1991;48.682;9.030;2022-12-18T09:43:28;24.02;;;20.70;;
3953;SDS011;1991;48.682;9.030;2022-12-18T09:45:59;22.83;;;20.40;;
3953;SDS011;1991;48.682;9.030;2022-12-18T09:48:29;23.35;;;20.67;;
3953;SDS011;1991;48.682;9.030;2022-12-18T09:51:02;24.45;;;21.73;;
3953;SDS011;1991;48.682;9.030;2022-12-18T09:53:34;23.38;;;20.98;;
3953;SDS011;1991;48.682;9.030;2022-12-18T09:56:03;24.35;;;21.25;;
3953;SDS011;1991;48.682;9.030;2022-12-18T09:58:37;23.70;;;21.30;;
3953;SDS011;1991;48.682;9.030;2022-12-18T10:01:13;22.40;;;20.00;;
3953;SDS011;1991;48.682;9.030;2022-12-18T10:03:41;22.90;;;20.50;;
3953;SDS011;1991;48.682;9.030;2022-12-18T10:06:27;22.25;;;19.70;;
3953;SDS011;1991;48.682;9.030;2022-12-18T10:11:47;22.70;;;20.33;;
3953;SDS011;1991;48.682;9.030;2022-12-18T10:14:23;23.02;;;20.52;;
3953;SDS011;1991;48.682;9.030;2022-12-18T10:17:25;24.05;;;21.55;;
3953;SDS011;1991;48.682;9.030;2022-12-18T10:23:50;24.52;;;22.05;;
3953;SDS011;1991;48.682;9.030;2022-12-18T10:26:06;23.95;;;21.55;;
3953;SDS011;1991;48.682;9.030;2022-12-18T10:28:37;22.50;;;20.27;;
3953;SDS011;1991;48.682;9.030;2022-12-18T10:31:12;23.08;;;20.80;;
3953;SDS011;1991;48.682;9.030;2022-12-18T10:33:44;23.42;;;21.02;;
3953;SDS011;1991;48.682;9.030;2022-12-18T10:36:10;22.67;;;20.38;;
3953;SDS011;1991;48.682;9.030;2022-12-18T10:38:35;23.88;;;21.48;;
3953;SDS011;1991;48.682;9.030;2022-12-18T10:43:42;23.75;;;21.35;;
3953;SDS011;1991;48.682;9.030;2022-12-18T10:48:34;22.60;;;20.38;;
3953;SDS011;1991;48.682;9.030;2022-12-18T10:51:05;23.17;;;20.77;;
3953;SDS011;1991;48.682;9.030;2022-12-18T10:53:32;21.67;;;19.40;;
3953;SDS011;1991;48.682;9.030;2022-12-18T10:56:02;20.85;;;18.75;;
3953;SDS011;1991;48.682;9.030;2022-12-18T10:58:31;22.08;;;19.75;;
3953;SDS011;1991;48.682;9.030;2022-12-18T11:04:08;22.88;;;20.48;;
3953;SDS011;1991;48.682;9.030;2022-12-18T11:06:33;22.60;;;20.20;;
3953;SDS011;1991;48.682;9.030;2022-12-18T11:09:19;21.80;;;19.60;;
3953;SDS011;1991;48.682;9.030;2022-12-18T11:11:52;23.25;;;20.85;;
3953;SDS011;1991;48.682;9.030;2022-12-18T11:14:29;22.08;;;19.77;;
3953;SDS011;1991;48.682;9.030;2022-12-18T11:17:16;23.17;;;20.80;;
3953;SDS011;1991;48.682;9.030;2022-12-18T11:19:43;22.50;;;20.23;;
3953;SDS011;1991;48.682;9.030;2022-12-18T11:22:28;22.58;;;20.27;;
3953;SDS011;1991;48.682;9.030;2022-12-18T11:27:25;23.27;;;20.95;;
3953;SDS011;1991;48.682;9.030;2022-12-18T11:30:06;24.05;;;21.65;;
3953;SDS011;1991;48.682;9.030;2022-12-18T11:33:27;23.63;;;21.23;;
3953;SDS011;1991;48.682;9.030;2022-12-18T11:35:48;24.77;;;22.17;;
3953;SDS011;1991;48.682;9.030;2022-12-18T11:38:24;24.35;;;21.80;;
3953;SDS011;1991;48.682;9.030;2022-12-18T11:46:37;25.30;;;22.65;;
3953;SDS011;1991;48.682;9.030;2022-12-18T11:49:12;24.17;;;21.67;;
3953;SDS011;1991;48.682;9.030;2022-12-18T11:51:48;23.70;;;21.27;;
3953;SDS011;1991;48.682;9.030;2022-12-18T11:54:28;23.92;;;21.42;;
3953;SDS011;1991;48.682;9.030;2022-12-18T11:57:39;23.63;;;21.02;;
3953;SDS011;1991;48.682;9.030;2022-12-18T12:00:04;23.58;;;21.00;;
3953;SDS011;1991;48.682;9.030;2022-12-18T12:11:05;23.70;;;21.15;;
3953;SDS011;1991;48.682;9.030;2022-12-18T12:21:51;23.02;;;20.13;;
3953;SDS011;1991;48.682;9.030;2022-12-18T12:25:05;22.80;;;19.90;;
3953;SDS011;1991;48.682;9.030;2022-12-18T12:27:47;25.58;;;20.92;;
3953;SDS011;1991;48.682;9.030;2022-12-18T12:38:49;26.67;;;20.60;;
3953;SDS011;1991;48.682;9.030;2022-12-18T12:41:19;25.45;;;19.83;;
3953;SDS011;1991;48.682;9.030;2022-12-18T12:44:07;28.75;;;20.00;;
3953;SDS011;1991;48.682;9.030;2022-12-18T12:46:39;28.70;;;20.90;;
3953;SDS011;1991;48.682;9.030;2022-12-18T12:49:11;29.97;;;21.63;;
3953;SDS011;1991;48.682;9.030;2022-12-18T12:51:44;28.98;;;21.27;;
3953;SDS011;1991;48.682;9.030;2022-12-18T12:54:19;29.30;;;21.15;;
3953;SDS011;1991;48.682;9.030;2022-12-18T12:56:50;27.50;;;20.77;;
3953;SDS011;1991;48.682;9.030;2022-12-18T12:59:40;27.63;;;20.73;;
3953;SDS011;1991;48.682;9.030;2022-12-18T13:08:06;28.83;;;21.00;;
3953;SDS011;1991;48.682;9.030;2022-12-18T13:10:42;29.93;;;21.80;;
3953;SDS011;1991;48.682;9.030;2022-12-18T13:13:09;29.23;;;21.17;;
3953;SDS011;1991;48.682;9.030;2022-12-18T13:20:37;32.27;;;21.77;;
3953;SDS011;1991;48.682;9.030;2022-12-18T13:25:50;27.87;;;20.10;;
3953;SDS011;1991;48.682;9.030;2022-12-18T13:31:11;29.70;;;19.30;;
3953;SDS011;1991;48.682;9.030;2022-12-18T13:36:37;29.50;;;20.90;;
3953;SDS011;1991;48.682;9.030;2022-12-18T13:39:10;28.90;;;21.27;;
3953;SDS011;1991;48.682;9.030;2022-12-18T13:41:40;31.23;;;20.53;;
3953;SDS011;1991;48.682;9.030;2022-12-18T13:44:11;29.37;;;20.67;;
3953;SDS011;1991;48.682;9.030;2022-12-18T13:51:43;29.90;;;20.53;;
3953;SDS011;1991;48.682;9.030;2022-12-18T13:56:49;29.63;;;19.80;;
3953;SDS011;1991;48.682;9.030;2022-12-18T13:59:22;31.23;;;20.50;;
3953;SDS011;1991;48.682;9.030;2022-12-18T14:01:53;31.37;;;20.17;;
3953;SDS011;1991;48.682;9.030;2022-12-18T14:04:27;31.10;;;20.40;;
3953;SDS011;1991;48.682;9.030;2022-12-18T14:06:56;30.63;;;20.17;;
3953;SDS011;1991;48.682;9.030;2022-12-18T14:09:25;38.07;;;22.70;;
3953;SDS011;1991;48.682;9.030;2022-12-18T14:11:55;47.03;;;26.60;;
3953;SDS011;1991;48.682;9.030;2022-12-18T14:14:46;48.57;;;26.30;;
3953;SDS011;1991;48.682;9.030;2022-12-18T14:17:15;41.23;;;24.57;;
3953;SDS011;1991;48.682;9.030;2022-12-18T14:19:44;35.63;;;21.80;;
3953;SDS011;1991;48.682;9.030;2022-12-18T14:22:23;34.53;;;21.10;;
3953;SDS011;1991;48.682;9.030;2022-12-18T14:27:42;34.20;;;21.33;;
3953;SDS011;1991;48.682;9.030;2022-12-18T14:30:30;35.40;;;23.50;;
3953;SDS011;1991;48.682;9.030;2022-12-18T14:35:31;37.50;;;23.03;;
3953;SDS011;1991;48.682;9.030;2022-12-18T14:41:02;70.93;;;39.70;;
3953;SDS011;1991;48.682;9.030;2022-12-18T14:43:33;38.90;;;21.13;;
3953;SDS011;1991;48.682;9.030;2022-12-18T14:46:01;35.40;;;21.13;;
3953;SDS011;1991;48.682;9.030;2022-12-18T14:48:41;36.23;;;21.30;;
3953;SDS011;1991;48.682;9.030;2022-12-18T14:51:24;38.33;;;21.13;;
3953;SDS011;1991;48.682;9.030;2022-12-18T14:53:55;40.17;;;21.20;;
3953;SDS011;1991;48.682;9.030;2022-12-18T14:56:24;54.50;;;31.50;;
3953;SDS011;1991;48.682;9.030;2022-12-18T14:58:51;37.13;;;21.10;;
3953;SDS011;1991;48.682;9.030;2022-12-18T15:01:30;35.73;;;21.30;;
3953;SDS011;1991;48.682;9.030;2022-12-18T15:04:02;40.47;;;23.53;;
3953;SDS011;1991;48.682;9.030;2022-12-18T15:06:30;37.83;;;21.63;;
3953;SDS011;1991;48.682;9.030;2022-12-18T15:08:59;35.73;;;21.17;;
3953;SDS011;1991;48.682;9.030;2022-12-18T15:11:34;36.07;;;21.37;;
3953;SDS011;1991;48.682;9.030;2022-12-18T15:14:22;35.53;;;21.10;;
3953;SDS011;1991;48.682;9.030;2022-12-18T15:17:13;34.63;;;20.33;;
3953;SDS011;1991;48.682;9.030;2022-12-18T15:19:44;41.10;;;22.13;;
3953;SDS011;1991;48.682;9.030;2022-12-18T15:24:45;38.47;;;20.67;;
3953;SDS011;1991;48.682;9.030;2022-12-18T15:30:00;38.77;;;21.13;;
3953;SDS011;1991;48.682;9.030;2022-12-18T15:32:36;37.30;;;19.93;;
3953;SDS011;1991;48.682;9.030;2022-12-18T15:37:34;36.50;;;20.63;;
3953;SDS011;1991;48.682;9.030;2022-12-18T15:40:00;39.20;;;20.57;;
3953;SDS011;1991;48.682;9.030;2022-12-18T15:42:27;39.83;;;21.97;;
3953;SDS011;1991;48.682;9.030;2022-12-18T15:45:11;44.37;;;22.30;;
3953;SDS011;1991;48.682;9.030;2022-12-18T15:47:38;41.10;;;20.47;;
3953;SDS011;1991;48.682;9.030;2022-12-18T15:50:05;34.70;;;20.17;;
3953;SDS011;1991;48.682;9.030;2022-12-18T15:52:32;40.07;;;21.33;;
3953;SDS011;1991;48.682;9.030;2022-12-18T15:55:10;40.17;;;21.17;;
3953;SDS011;1991;48.682;9.030;2022-12-18T15:58:06;41.60;;;21.77;;
3953;SDS011;1991;48.682;9.030;2022-12-18T16:00:33;38.70;;;20.70;;
3953;SDS011;1991;48.682;9.030;2022-12-18T16:03:00;45.73;;;22.20;;
3953;SDS011;1991;48.682;9.030;2022-12-18T16:05:26;45.20;;;23.23;;
3953;SDS011;1991;48.682;9.030;2022-12-18T16:07:52;44.07;;;22.07;;
3953;SDS011;1991;48.682;9.030;2022-12-18T16:10:18;43.17;;;22.83;;
3953;SDS011;1991;48.682;9.030;2022-12-18T16:12:44;44.37;;;23.23;;
3953;SDS011;1991;48.682;9.030;2022-12-18T16:15:12;40.93;;;22.77;;
3953;SDS011;1991;48.682;9.030;2022-12-18T16:17:40;40.30;;;22.30;;
3953;SDS011;1991;48.682;9.030;2022-12-18T16:20:11;42.27;;;22.60;;
3953;SDS011;1991;48.682;9.030;2022-12-18T16:22:42;40.77;;;21.40;;
3953;SDS011;1991;48.682;9.030;2022-12-18T16:27:48;41.97;;;21.27;;
3953;SDS011;1991;48.682;9.030;2022-12-18T16:30:14;40.40;;;21.63;;
3953;SDS011;1991;48.682;9.030;2022-12-18T16:32:41;40.27;;;21.43;;
3953;SDS011;1991;48.682;9.030;2022-12-18T16:35:09;41.50;;;20.87;;
3953;SDS011;1991;48.682;9.030;2022-12-18T16:37:36;38.63;;;21.33;;
3953;SDS011;1991;48.682;9.030;2022-12-18T16:40:01;41.10;;;21.43;;
3953;SDS011;1991;48.682;9.030;2022-12-18T16:42:27;41.93;;;22.73;;
3953;SDS011;1991;48.682;9.030;2022-12-18T16:44:53;43.10;;;22.37;;
3953;SDS011;1991;48.682;9.030;2022-12-18T16:47:18;43.07;;;21.80;;
3953;SDS011;1991;48.682;9.030;2022-12-18T16:49:44;42.20;;;22.03;;
3953;SDS011;1991;48.682;9.030;2022-12-18T16:52:10;41.83;;;22.47;;
3953;SDS011;1991;48.682;9.030;2022-12-18T16:54:36;39.57;;;20.80;;
3953;SDS011;1991;48.682;9.030;2022-12-18T16:57:02;39.53;;;21.87;;
3953;SDS011;1991;48.682;9.030;2022-12-18T16:59:29;40.93;;;22.30;;
3953;SDS011;1991;48.682;9.030;2022-12-18T17:01:55;41.70;;;22.17;;
3953;SDS011;1991;48.682;9.030;2022-12-18T17:04:21;39.73;;;21.33;;
3953;SDS011;1991;48.682;9.030;2022-12-18T17:06:47;40.20;;;21.27;;
3953;SDS011;1991;48.682;9.030;2022-12-18T17:09:19;38.73;;;21.30;;
3953;SDS011;1991;48.682;9.030;2022-12-18T17:11:49;40.07;;;21.17;;